createdAt,value
2023-04-30T00:02:21.165Z,9.60
2023-04-30T00:04:48.202Z,8.88
2023-04-30T00:07:15.293Z,9.30
2023-04-30T00:09:42.136Z,10.05
2023-04-30T00:12:09.130Z,9.90
2023-04-30T00:14:36.590Z,9.07
2023-04-30T00:17:03.769Z,9.85
2023-04-30T00:19:30.661Z,9.43
2023-04-30T00:21:57.986Z,9.15
2023-04-30T00:24:24.940Z,9.90
2023-04-30T00:26:51.983Z,9.45
2023-04-30T00:29:19.037Z,10.65
2023-04-30T00:31:46.189Z,11.18
2023-04-30T00:34:13.130Z,10.93
2023-04-30T00:36:40.679Z,10.82
2023-04-30T00:39:07.810Z,11.32
2023-04-30T00:41:38.587Z,12.35
2023-04-30T00:44:06.569Z,11.07
2023-04-30T00:46:33.580Z,11.30
2023-04-30T00:49:04.720Z,11.63
2023-04-30T00:51:35.962Z,11.90
2023-04-30T00:54:03.631Z,12.60
2023-04-30T00:56:31.764Z,12.35
2023-04-30T00:58:59.175Z,12.55
2023-04-30T01:01:29.141Z,12.52
2023-04-30T01:03:56.281Z,12.73
2023-04-30T01:06:24.546Z,12.50
2023-04-30T01:08:51.874Z,12.45
2023-04-30T01:11:58.766Z,14.95
2023-04-30T01:14:47.813Z,14.48
2023-04-30T01:17:26.685Z,14.25
2023-04-30T01:19:54.898Z,13.70
2023-04-30T01:22:27.954Z,15.10
2023-04-30T01:25:32.593Z,15.98
2023-04-30T01:28:20.266Z,15.45
2023-04-30T01:30:47.707Z,15.60
2023-04-30T01:33:14.923Z,16.63
2023-04-30T01:36:13.281Z,14.80
2023-04-30T01:38:59.080Z,15.10
2023-04-30T01:41:37.124Z,15.93
2023-04-30T01:44:16.089Z,16.17
2023-04-30T01:46:54.214Z,15.68
2023-04-30T01:49:58.991Z,16.13
2023-04-30T01:52:41.422Z,17.77
2023-04-30T01:55:21.402Z,18.02
2023-04-30T01:57:58.774Z,18.13
2023-04-30T02:00:27.538Z,17.52
2023-04-30T02:02:55.979Z,17.85
2023-04-30T02:05:23.253Z,19.52
2023-04-30T02:07:51.602Z,18.40
2023-04-30T02:10:21.532Z,18.30
2023-04-30T02:12:48.610Z,18.63
2023-04-30T02:15:15.670Z,19.60
2023-04-30T02:17:42.902Z,18.55
2023-04-30T02:20:10.874Z,19.95
2023-04-30T02:22:38.149Z,19.08
2023-04-30T02:25:05.621Z,19.23
2023-04-30T02:27:33.612Z,19.92
2023-04-30T02:30:01.202Z,19.13
2023-04-30T02:32:28.257Z,19.83
2023-04-30T02:34:55.225Z,19.73
2023-04-30T02:37:22.817Z,18.92
2023-04-30T02:39:50.027Z,19.05
2023-04-30T02:42:17.098Z,18.73
2023-04-30T02:44:44.370Z,18.38
2023-04-30T02:47:11.530Z,18.30
2023-04-30T02:49:38.890Z,17.17
2023-04-30T02:52:07.203Z,18.83
2023-04-30T02:54:34.235Z,18.50
2023-04-30T02:57:01.504Z,18.60
2023-04-30T02:59:28.438Z,18.30
2023-04-30T03:01:55.454Z,18.80
2023-04-30T03:04:22.505Z,18.88
2023-04-30T03:06:49.452Z,19.63
2023-04-30T03:09:16.399Z,17.88
2023-04-30T03:11:43.338Z,17.67
2023-04-30T03:14:10.361Z,17.55
2023-04-30T03:16:37.359Z,18.98
2023-04-30T03:19:04.336Z,18.90
2023-04-30T03:21:31.562Z,21.45
2023-04-30T03:23:58.454Z,21.15
2023-04-30T03:26:25.824Z,22.23
2023-04-30T03:28:52.676Z,22.60
2023-04-30T03:31:19.642Z,24.35
2023-04-30T03:33:46.823Z,25.20
2023-04-30T03:36:13.780Z,25.92
2023-04-30T03:38:41.881Z,25.08
2023-04-30T03:41:08.876Z,26.35
2023-04-30T03:43:35.934Z,26.80
2023-04-30T03:46:03.173Z,27.13
2023-04-30T03:48:30.322Z,26.25
2023-04-30T03:50:57.649Z,24.98
2023-04-30T03:53:26.529Z,26.75
2023-04-30T03:55:54.681Z,27.88
2023-04-30T03:58:22.690Z,28.15
2023-04-30T04:00:50.040Z,27.60
2023-04-30T04:03:17.179Z,26.90
2023-04-30T04:05:45.028Z,29.02
2023-04-30T04:08:12.090Z,30.65
2023-04-30T04:10:40.245Z,27.92
2023-04-30T04:13:08.554Z,28.05
2023-04-30T04:15:36.198Z,28.10
2023-04-30T04:18:03.887Z,27.63
2023-04-30T04:20:30.824Z,29.27
2023-04-30T04:22:57.771Z,28.60
2023-04-30T04:25:25.300Z,28.02
2023-04-30T04:27:52.530Z,27.92
2023-04-30T04:30:19.968Z,30.85
2023-04-30T04:32:51.982Z,31.05
2023-04-30T04:35:19.435Z,32.78
2023-04-30T04:37:46.465Z,28.85
2023-04-30T04:40:14.142Z,27.40
2023-04-30T04:42:42.050Z,31.65
2023-04-30T04:45:09.875Z,30.98
2023-04-30T04:47:38.132Z,31.52
2023-04-30T04:50:05.597Z,31.45
2023-04-30T04:52:32.528Z,30.88
2023-04-30T04:54:59.515Z,30.52
2023-04-30T04:57:26.745Z,31.58
2023-04-30T04:59:54.026Z,29.80
2023-04-30T05:02:23.429Z,28.75
2023-04-30T05:04:51.585Z,27.60
2023-04-30T05:07:19.436Z,27.25
2023-04-30T05:09:47.210Z,27.95
2023-04-30T05:12:14.989Z,25.77
2023-04-30T05:14:43.059Z,23.52
2023-04-30T05:17:10.523Z,23.52
2023-04-30T05:19:37.533Z,23.55
2023-04-30T05:22:04.846Z,22.15
2023-04-30T05:24:32.070Z,22.48
2023-04-30T05:26:59.037Z,21.30
2023-04-30T05:29:25.924Z,21.88
2023-04-30T05:31:52.940Z,21.83
2023-04-30T05:34:20.106Z,21.55
2023-04-30T05:36:47.292Z,21.23
2023-04-30T05:39:14.617Z,21.48
2023-04-30T05:41:41.464Z,22.13
2023-04-30T05:44:08.425Z,21.80
2023-04-30T05:46:35.637Z,22.30
2023-04-30T05:49:02.811Z,23.23
2023-04-30T05:51:29.786Z,22.38
2023-04-30T05:53:57.631Z,22.33
2023-04-30T05:56:25.153Z,21.30
2023-04-30T05:58:52.701Z,22.30
2023-04-30T06:01:21.275Z,21.70
2023-04-30T06:03:48.357Z,21.30
2023-04-30T06:06:15.696Z,21.77
2023-04-30T06:08:45.328Z,22.17
2023-04-30T06:11:13.647Z,20.90
2023-04-30T06:13:40.906Z,20.08
2023-04-30T06:16:08.511Z,20.33
2023-04-30T06:18:35.746Z,20.05
2023-04-30T06:21:02.841Z,19.70
2023-04-30T06:23:29.838Z,20.83
2023-04-30T06:25:56.954Z,20.17
2023-04-30T06:28:23.923Z,20.25
2023-04-30T06:30:51.894Z,18.42
2023-04-30T06:33:18.809Z,19.23
2023-04-30T06:35:45.800Z,19.15
2023-04-30T06:38:12.695Z,18.38
2023-04-30T06:40:40.018Z,17.85
2023-04-30T06:43:06.898Z,18.30
2023-04-30T06:45:34.045Z,18.77
2023-04-30T06:48:01.076Z,18.05
2023-04-30T06:50:28.096Z,18.27
2023-04-30T06:52:55.023Z,18.10
2023-04-30T06:55:22.093Z,18.05
2023-04-30T06:57:49.158Z,17.60
2023-04-30T07:00:16.830Z,18.88
2023-04-30T07:02:43.909Z,16.52
2023-04-30T07:05:12.202Z,17.85
2023-04-30T07:07:39.276Z,17.52
2023-04-30T07:10:06.663Z,18.38
2023-04-30T07:12:33.563Z,20.77
2023-04-30T07:15:00.732Z,18.33
2023-04-30T07:17:27.981Z,18.92
2023-04-30T07:19:55.399Z,19.30
2023-04-30T07:22:22.483Z,18.30
2023-04-30T07:24:49.501Z,18.55
2023-04-30T07:27:16.476Z,18.42
2023-04-30T07:29:43.413Z,18.88
2023-04-30T07:32:10.923Z,18.23
2023-04-30T07:34:38.388Z,20.73
2023-04-30T07:37:05.496Z,21.58
2023-04-30T07:39:32.539Z,22.45
2023-04-30T07:41:59.429Z,23.27
2023-04-30T07:44:26.397Z,23.20
2023-04-30T07:46:53.266Z,25.05
2023-04-30T07:49:20.405Z,30.30
2023-04-30T07:51:47.569Z,31.25
2023-04-30T07:54:14.595Z,33.13
2023-04-30T07:56:41.976Z,29.55
2023-04-30T07:59:08.994Z,31.67
2023-04-30T08:01:36.141Z,29.88
2023-04-30T08:04:03.427Z,25.67
2023-04-30T08:06:30.630Z,28.88
2023-04-30T08:08:57.601Z,29.15
2023-04-30T08:11:24.534Z,27.52
2023-04-30T08:13:51.511Z,26.02
2023-04-30T08:16:18.431Z,23.70
2023-04-30T08:18:46.667Z,25.25
2023-04-30T08:21:13.866Z,25.15
2023-04-30T08:23:40.888Z,25.50
2023-04-30T08:26:07.825Z,25.15
2023-04-30T08:28:34.784Z,23.88
2023-04-30T08:31:01.742Z,23.23
2023-04-30T08:33:28.648Z,24.13
2023-04-30T08:35:55.844Z,23.27
2023-04-30T08:38:22.852Z,22.83
2023-04-30T08:41:25.603Z,21.30
2023-04-30T08:43:53.863Z,20.73
2023-04-30T08:46:21.888Z,20.38
2023-04-30T08:48:48.952Z,20.98
2023-04-30T08:51:15.931Z,19.92
2023-04-30T08:53:44.211Z,18.83
2023-04-30T08:56:11.792Z,17.70
2023-04-30T08:58:40.613Z,19.52
2023-04-30T09:01:09.695Z,17.90
2023-04-30T09:03:37.585Z,18.33
2023-04-30T09:06:05.021Z,17.27
2023-04-30T09:08:48.885Z,16.73
2023-04-30T09:11:29.087Z,17.38
2023-04-30T09:14:00.523Z,16.05
2023-04-30T09:16:33.086Z,15.27
2023-04-30T09:19:00.498Z,15.85
2023-04-30T09:21:37.823Z,16.23
2023-04-30T09:24:06.047Z,15.98
2023-04-30T09:26:35.165Z,16.55
2023-04-30T09:29:07.946Z,16.20
2023-04-30T09:31:36.831Z,14.13
2023-04-30T09:34:05.183Z,17.15
2023-04-30T09:36:33.165Z,17.88
2023-04-30T09:39:17.525Z,18.90
2023-04-30T09:41:45.090Z,18.08
2023-04-30T09:44:28.483Z,16.63
2023-04-30T09:46:58.022Z,18.75
2023-04-30T09:49:26.527Z,18.02
2023-04-30T09:52:01.504Z,18.95
2023-04-30T09:54:30.102Z,18.13
2023-04-30T09:56:59.629Z,18.58
2023-04-30T09:59:35.671Z,18.92
2023-04-30T10:02:04.831Z,18.30
2023-04-30T10:04:38.372Z,17.83
2023-04-30T10:07:18.745Z,18.13
2023-04-30T10:09:59.704Z,17.45
2023-04-30T10:12:32.976Z,19.50
2023-04-30T10:15:10.038Z,18.05
2023-04-30T10:17:44.150Z,18.52
2023-04-30T10:20:13.732Z,18.80
2023-04-30T10:22:41.926Z,18.92
2023-04-30T10:25:13.391Z,18.45
2023-04-30T10:27:40.598Z,19.55
2023-04-30T10:30:11.002Z,20.35
2023-04-30T10:33:20.631Z,19.08
2023-04-30T10:36:13.399Z,20.33
2023-04-30T10:38:41.176Z,19.98
2023-04-30T10:41:09.778Z,19.75
2023-04-30T10:43:38.347Z,20.20
2023-04-30T10:46:05.707Z,19.20
2023-04-30T10:48:35.487Z,20.00
2023-04-30T10:51:02.570Z,21.65
2023-04-30T10:53:32.862Z,21.30
2023-04-30T10:56:08.703Z,19.13
2023-04-30T10:58:38.606Z,20.13
2023-04-30T11:01:17.490Z,20.08
2023-04-30T11:04:06.363Z,18.92
2023-04-30T11:06:55.036Z,20.40
2023-04-30T11:09:45.422Z,21.15
2023-04-30T11:12:29.327Z,21.60
2023-04-30T11:15:28.320Z,18.05
2023-04-30T11:17:59.659Z,17.10
2023-04-30T11:20:27.056Z,15.48
2023-04-30T11:23:12.599Z,16.88
2023-04-30T11:25:41.198Z,11.25
2023-04-30T11:28:13.190Z,10.57
2023-04-30T11:30:40.361Z,11.20
2023-04-30T11:33:07.685Z,10.38
2023-04-30T11:35:35.421Z,9.98
2023-04-30T11:38:05.254Z,8.90
2023-04-30T11:40:36.044Z,7.88
2023-04-30T11:43:02.943Z,8.73
2023-04-30T11:45:30.453Z,9.48
2023-04-30T11:47:57.974Z,9.05
2023-04-30T11:50:29.850Z,8.60
2023-04-30T11:52:58.618Z,8.10
2023-04-30T11:55:27.853Z,10.55
2023-04-30T11:57:56.773Z,9.25
2023-04-30T12:00:30.963Z,7.95
2023-04-30T12:03:01.208Z,7.75
2023-04-30T12:05:28.447Z,8.55
2023-04-30T12:08:04.510Z,7.30
2023-04-30T12:10:32.330Z,7.47
2023-04-30T12:12:59.563Z,6.05
2023-04-30T12:15:27.699Z,6.32
2023-04-30T12:17:58.956Z,6.53
2023-04-30T12:20:29.092Z,5.97
2023-04-30T12:22:56.739Z,8.30
2023-04-30T12:25:24.112Z,13.35
2023-04-30T12:27:54.405Z,15.98
2023-04-30T12:30:23.728Z,17.13
2023-04-30T12:32:56.744Z,17.70
2023-04-30T12:35:24.912Z,19.15
2023-04-30T12:38:01.275Z,17.70
2023-04-30T12:40:28.549Z,16.65
2023-04-30T12:43:02.583Z,16.77
2023-04-30T12:45:53.380Z,16.02
2023-04-30T12:48:22.659Z,15.10
2023-04-30T12:51:01.181Z,14.23
2023-04-30T12:53:29.327Z,13.45
2023-04-30T12:56:12.993Z,12.95
2023-04-30T12:58:40.598Z,12.55
2023-04-30T13:01:12.637Z,11.93
2023-04-30T13:03:39.892Z,11.48
2023-04-30T13:06:07.533Z,12.75
2023-04-30T13:08:45.718Z,14.88
2023-04-30T13:11:22.198Z,14.60
2023-04-30T13:13:49.108Z,13.52
2023-04-30T13:16:16.832Z,14.05
2023-04-30T13:18:44.316Z,14.25
2023-04-30T13:21:11.503Z,13.48
2023-04-30T13:23:44.921Z,14.20
2023-04-30T13:26:18.929Z,14.68
2023-04-30T13:28:45.870Z,14.07
2023-04-30T13:31:12.864Z,13.70
2023-04-30T13:33:39.903Z,13.55
2023-04-30T13:36:07.157Z,13.82
2023-04-30T13:38:34.037Z,13.63
2023-04-30T13:41:01.110Z,13.05
2023-04-30T13:43:27.979Z,13.05
2023-04-30T13:45:55.028Z,12.30
2023-04-30T13:48:22.255Z,11.95
2023-04-30T13:50:49.258Z,12.45
2023-04-30T13:53:16.227Z,13.95
2023-04-30T13:55:43.156Z,12.10
2023-04-30T13:58:10.128Z,13.23
2023-04-30T14:00:37.144Z,12.85
2023-04-30T14:03:06.476Z,11.73
2023-04-30T14:05:35.753Z,11.13
2023-04-30T14:08:02.726Z,12.18
2023-04-30T14:10:29.751Z,10.93
2023-04-30T14:12:56.597Z,11.18
2023-04-30T14:15:24.514Z,10.93
2023-04-30T14:17:53.003Z,11.60
2023-04-30T14:20:20.139Z,11.43
2023-04-30T14:22:46.998Z,11.13
2023-04-30T14:25:13.957Z,11.73
2023-04-30T14:27:41.473Z,10.90
2023-04-30T14:30:09.279Z,11.35
2023-04-30T14:32:37.396Z,10.93
2023-04-30T14:35:05.365Z,10.95
2023-04-30T14:37:32.324Z,11.57
2023-04-30T14:40:00.642Z,12.95
2023-04-30T14:42:27.603Z,12.73
2023-04-30T14:44:54.545Z,13.15
2023-04-30T14:47:22.733Z,12.27
2023-04-30T14:49:52.133Z,14.10
2023-04-30T14:52:19.931Z,13.38
2023-04-30T14:54:46.834Z,13.18
2023-04-30T14:57:14.495Z,13.45
2023-04-30T14:59:41.940Z,11.90
2023-04-30T15:02:09.767Z,11.95
2023-04-30T15:04:36.723Z,11.63
2023-04-30T15:07:04.285Z,10.98
2023-04-30T15:09:31.354Z,10.73
2023-04-30T15:11:58.295Z,10.05
2023-04-30T15:14:25.256Z,10.73
2023-04-30T15:16:52.285Z,11.10
2023-04-30T15:19:19.211Z,11.30
2023-04-30T15:21:48.391Z,10.93
2023-04-30T15:24:16.233Z,11.35
2023-04-30T15:26:43.369Z,13.10
2023-04-30T15:29:10.650Z,11.63
2023-04-30T15:31:37.862Z,12.13
2023-04-30T15:34:04.861Z,12.55
2023-04-30T15:36:32.408Z,12.45
2023-04-30T15:38:59.586Z,12.02
2023-04-30T15:41:26.571Z,12.80
2023-04-30T15:43:53.517Z,12.38
2023-04-30T15:46:20.715Z,12.60
2023-04-30T15:48:47.633Z,12.95
2023-04-30T15:51:14.702Z,13.13
2023-04-30T15:53:41.595Z,12.75
2023-04-30T15:56:09.665Z,12.82
2023-04-30T15:58:36.706Z,13.88
2023-04-30T16:01:03.791Z,13.77
2023-04-30T16:03:31.613Z,14.63
2023-04-30T16:06:01.084Z,14.13
2023-04-30T16:08:28.504Z,13.77
2023-04-30T16:10:55.688Z,15.05
2023-04-30T16:13:22.583Z,13.55
2023-04-30T16:15:49.770Z,14.35
2023-04-30T16:18:16.899Z,13.10
2023-04-30T16:20:47.266Z,14.07
2023-04-30T16:23:14.543Z,14.57
2023-04-30T16:25:42.024Z,13.88
2023-04-30T16:28:08.977Z,15.10
2023-04-30T16:30:35.965Z,13.70
2023-04-30T16:33:03.171Z,13.60
2023-04-30T16:35:30.039Z,13.88
2023-04-30T16:37:57.014Z,12.85
2023-04-30T16:40:23.921Z,11.90
2023-04-30T16:42:51.001Z,11.32
2023-04-30T16:45:17.967Z,11.35
2023-04-30T16:47:45.600Z,10.10
2023-04-30T16:50:12.551Z,10.70
2023-04-30T16:52:39.578Z,10.63
2023-04-30T16:55:07.112Z,10.23
2023-04-30T16:57:34.034Z,10.38
2023-04-30T17:00:00.947Z,9.65
2023-04-30T17:02:28.015Z,9.27
2023-04-30T17:04:54.954Z,8.88
2023-04-30T17:07:21.995Z,8.05
2023-04-30T17:09:49.022Z,7.78
2023-04-30T17:12:16.194Z,7.32
2023-04-30T17:14:43.095Z,7.68
2023-04-30T17:17:10.058Z,7.05
2023-04-30T17:19:36.947Z,7.28
2023-04-30T17:22:04.003Z,7.00
2023-04-30T17:24:30.940Z,7.22
2023-04-30T17:26:59.385Z,7.75
2023-04-30T17:29:26.333Z,7.55
2023-04-30T17:31:53.946Z,7.20
2023-04-30T17:34:20.984Z,7.55
2023-04-30T17:36:50.068Z,7.28
2023-04-30T17:39:18.796Z,8.23
2023-04-30T17:41:46.012Z,7.20
2023-04-30T17:44:13.535Z,6.65
2023-04-30T17:46:41.192Z,5.53
2023-04-30T17:49:08.194Z,6.13
2023-04-30T17:51:35.607Z,6.15
2023-04-30T17:54:02.923Z,5.88
2023-04-30T17:56:33.356Z,5.85
2023-04-30T17:59:00.819Z,7.53
2023-04-30T18:01:27.897Z,11.43
2023-04-30T18:03:55.151Z,8.77
2023-04-30T18:06:22.233Z,7.72
2023-04-30T18:08:49.459Z,8.52
2023-04-30T18:11:16.362Z,8.18
2023-04-30T18:13:43.422Z,17.02
2023-04-30T18:16:10.619Z,8.90
2023-04-30T18:18:37.742Z,9.73
2023-04-30T18:21:04.931Z,9.07
2023-04-30T18:23:31.938Z,10.23
2023-04-30T18:25:58.952Z,12.45
2023-04-30T18:28:25.922Z,10.95
2023-04-30T18:30:52.890Z,13.45
2023-04-30T18:33:19.821Z,17.05
2023-04-30T18:35:49.762Z,16.17
2023-04-30T18:38:17.210Z,14.40
2023-04-30T18:40:44.161Z,16.40
2023-04-30T18:43:11.630Z,20.83
2023-04-30T18:45:38.974Z,18.92
2023-04-30T18:48:06.445Z,19.13
2023-04-30T18:50:33.439Z,20.23
2023-04-30T18:53:00.554Z,19.88
2023-04-30T18:55:27.490Z,19.50
2023-04-30T18:57:56.426Z,19.15
2023-04-30T19:00:23.392Z,20.95
2023-04-30T19:02:50.569Z,18.35
2023-04-30T19:05:17.900Z,19.95
2023-04-30T19:07:45.106Z,19.13
2023-04-30T19:10:12.078Z,18.13
2023-04-30T19:12:39.280Z,17.88
2023-04-30T19:15:08.088Z,18.02
2023-04-30T19:17:35.321Z,16.48
2023-04-30T19:20:02.379Z,20.17
2023-04-30T19:22:29.333Z,16.88
2023-04-30T19:24:56.223Z,16.23
2023-04-30T19:27:23.414Z,15.98
2023-04-30T19:29:52.983Z,16.65
2023-04-30T19:32:20.758Z,16.45
2023-04-30T19:34:47.801Z,16.90
2023-04-30T19:37:14.801Z,16.80
2023-04-30T19:39:41.668Z,15.63
2023-04-30T19:42:08.809Z,16.05
2023-04-30T19:44:35.980Z,19.20
2023-04-30T19:47:04.227Z,15.82
2023-04-30T19:49:33.119Z,15.90
2023-04-30T19:52:00.124Z,23.75
2023-04-30T19:54:27.024Z,18.63
2023-04-30T19:56:54.619Z,17.65
2023-04-30T19:59:21.608Z,16.13
2023-04-30T20:01:48.801Z,17.50
2023-04-30T20:04:16.051Z,15.65
2023-04-30T20:06:43.538Z,14.13
2023-04-30T20:09:10.669Z,14.98
2023-04-30T20:11:37.713Z,14.65
2023-04-30T20:14:04.786Z,13.93
2023-04-30T20:16:32.278Z,13.05
2023-04-30T20:18:59.309Z,12.27
2023-04-30T20:21:26.323Z,13.07
2023-04-30T20:23:53.231Z,13.02
2023-04-30T20:26:21.565Z,12.15
2023-04-30T20:28:48.598Z,12.18
2023-04-30T20:31:15.633Z,10.70
2023-04-30T20:33:42.789Z,12.02
2023-04-30T20:36:09.952Z,12.00
2023-04-30T20:38:36.821Z,11.73
2023-04-30T20:41:04.075Z,10.88
2023-04-30T20:43:30.953Z,10.57
2023-04-30T20:46:00.616Z,10.57
2023-04-30T20:48:27.562Z,10.68
2023-04-30T20:50:54.787Z,12.82
2023-04-30T20:53:22.575Z,12.07
2023-04-30T20:55:49.593Z,12.13
2023-04-30T20:58:16.572Z,11.77
2023-04-30T21:00:43.563Z,11.40
2023-04-30T21:03:10.783Z,11.32
2023-04-30T21:05:37.871Z,11.52
2023-04-30T21:08:04.943Z,12.38
2023-04-30T21:10:36.505Z,11.85
2023-04-30T21:13:05.642Z,11.68
2023-04-30T21:15:35.636Z,11.48
2023-04-30T21:18:02.893Z,13.07
2023-04-30T21:20:31.531Z,12.70
2023-04-30T21:22:58.812Z,12.48
2023-04-30T21:25:25.911Z,12.18
2023-04-30T21:27:52.894Z,11.40
2023-04-30T21:30:23.525Z,11.60
2023-04-30T21:32:57.865Z,11.95
2023-04-30T21:35:25.717Z,10.70
2023-04-30T21:37:52.710Z,11.27
2023-04-30T21:40:19.704Z,12.20
2023-04-30T21:42:47.405Z,11.75
2023-04-30T21:45:14.404Z,12.10
2023-04-30T21:47:42.487Z,12.00
2023-04-30T21:50:10.506Z,10.80
2023-04-30T21:52:37.386Z,12.77
2023-04-30T21:55:04.627Z,11.23
2023-04-30T21:57:31.552Z,10.48
2023-04-30T22:00:00.105Z,10.38
2023-04-30T22:02:27.442Z,10.45
2023-04-30T22:04:55.627Z,10.10
2023-04-30T22:07:22.794Z,10.48
2023-04-30T22:09:51.682Z,10.35
2023-04-30T22:12:25.110Z,9.73
2023-04-30T22:14:55.837Z,10.18
2023-04-30T22:17:23.372Z,10.25
2023-04-30T22:19:51.144Z,10.07
2023-04-30T22:22:18.393Z,10.77
2023-04-30T22:24:45.752Z,10.40
2023-04-30T22:27:13.515Z,9.95
2023-04-30T22:29:41.267Z,10.18
2023-04-30T22:32:09.533Z,10.70
2023-04-30T22:34:39.767Z,10.38
2023-04-30T22:37:10.612Z,10.68
2023-04-30T22:39:39.011Z,10.98
2023-04-30T22:42:07.182Z,10.40
2023-04-30T22:44:34.556Z,10.30
2023-04-30T22:47:02.799Z,11.88
2023-04-30T22:49:32.086Z,10.50
2023-04-30T22:52:00.194Z,10.93
2023-04-30T22:54:27.505Z,10.00
2023-04-30T22:56:54.707Z,10.63
2023-04-30T22:59:21.897Z,10.30
2023-04-30T23:01:49.528Z,10.65
2023-04-30T23:04:16.919Z,9.65
2023-04-30T23:06:44.291Z,10.60
2023-04-30T23:09:12.949Z,11.35
2023-04-30T23:11:40.656Z,11.98
2023-04-30T23:14:08.287Z,11.73
2023-04-30T23:16:35.868Z,10.68
2023-04-30T23:19:03.296Z,11.35
2023-04-30T23:21:31.361Z,11.55
2023-04-30T23:23:58.400Z,12.50
2023-04-30T23:26:25.843Z,12.45
2023-04-30T23:28:55.320Z,11.95
2023-04-30T23:31:22.916Z,10.98
2023-04-30T23:33:50.190Z,11.05
2023-04-30T23:36:17.557Z,11.13
2023-04-30T23:38:46.700Z,10.73
2023-04-30T23:41:14.582Z,11.48
2023-04-30T23:43:41.874Z,12.10
2023-04-30T23:46:09.273Z,11.73
2023-04-30T23:48:36.579Z,12.35
2023-04-30T23:51:05.588Z,11.80
2023-04-30T23:53:32.811Z,12.07
2023-04-30T23:56:00.265Z,11.77
2023-04-30T23:58:30.152Z,11.77
